Kearneysville, West Virginia
Current Conditions -  °F | °C
As of 8:07 AM on Wednesday 26 Nov 2014 (Local Time) from KMRB Reporting Station
Light Rain Light Rain  
Wind Chill:   Ceiling: 3300
Heat Index:   Visibility: 4mi
Dew Point:   Wind: 8mph
Humidity: 83%   Direction: 20°NNE
Pressure: 30.08"   Gusts: NA
Location:  39.39°N, 77.89°W
Report Text: KMRB 261307Z 02007KT 4SM -RA SCT008 OVC033 03/01 A3008 RMK AO2 P0001 T00330006
Loading
Personal Weather Stations






























Interactive Weather Map New forecast layout! Learn more

10-Day Weather Forecast

Advertisements
Track Severe Weather on mobile